Terminal Aerodrome Forecast
Issued by NWS

Home | Current Version | Previous Version | Graphics & Text | Print | Product List | Glossary On
Versions: 1 2 3 4 5 6 7 8 9 10 11 12 13 14 15 16 17 18 19 20 21 22
000
FTUS43 KBIS 232300
TAFDIK
TAF
KDIK 232338Z 2400/2424 10012KT P6SM SCT080
     FM240900 14009KT P6SM SCT015 BKN030
     FM241200 18010KT 5SM -RA BKN012 OVC030
     FM241600 30020G28KT 4SM -RA BR BKN010 OVC015=

USA.gov is the U.S. government's official web portal to all federal, state and local government web resources and services.